createdAt,value
2022-10-28T00:00:47.901Z,100766.63
2022-10-28T00:01:50.311Z,100754.72
2022-10-28T00:02:54.001Z,100764.53
2022-10-28T00:03:59.316Z,100768.09
2022-10-28T00:05:01.781Z,100765.63
2022-10-28T00:06:09.247Z,100761.06
2022-10-28T00:07:11.655Z,100760.53
2022-10-28T00:08:13.901Z,100763.97
2022-10-28T00:09:15.929Z,100757.91
2022-10-28T00:10:19.042Z,100763.03
2022-10-28T00:11:30.173Z,100763.97
2022-10-28T00:12:38.970Z,100760.72
2022-10-28T00:13:43.927Z,100758.53
2022-10-28T00:14:45.982Z,100766.88
2022-10-28T00:15:48.451Z,100765.94
2022-10-28T00:16:51.066Z,100774.94
2022-10-28T00:17:54.475Z,100769.69
2022-10-28T00:18:58.618Z,100769.16
2022-10-28T00:20:01.171Z,100780.72
2022-10-28T00:21:06.735Z,100770.66
2022-10-28T00:22:08.794Z,100768.56
2022-10-28T00:23:10.841Z,100766.91
2022-10-28T00:24:14.435Z,100772.25
2022-10-28T00:25:16.708Z,100767.28
2022-10-28T00:26:24.464Z,100769.25
2022-10-28T00:27:30.414Z,100767.28
2022-10-28T00:28:34.225Z,100759.38
2022-10-28T00:29:37.701Z,100760.88
2022-10-28T00:30:39.681Z,100759.88
2022-10-28T00:31:43.008Z,100759.66
2022-10-28T00:32:46.794Z,100746.72
2022-10-28T00:33:49.241Z,100749.47
2022-10-28T00:34:51.858Z,100759.53
2022-10-28T00:35:53.937Z,100765.53
2022-10-28T00:36:56.135Z,100757.56
2022-10-28T00:37:59.852Z,100766.78
2022-10-28T00:39:03.630Z,100762.22
2022-10-28T00:40:08.423Z,100765.69
2022-10-28T00:41:12.880Z,100761.13
2022-10-28T00:42:23.986Z,100766.03
2022-10-28T00:43:59.803Z,100762.56
2022-10-28T00:45:02.847Z,100765.28
2022-10-28T00:46:16.717Z,100757.63
2022-10-28T00:47:37.213Z,100764.41
2022-10-28T00:48:43.629Z,100763.09
2022-10-28T00:49:48.079Z,100763.47
2022-10-28T00:50:57.132Z,100764.47
2022-10-28T00:52:09.669Z,100760.38
2022-10-28T00:53:18.178Z,100758.59
2022-10-28T00:54:23.117Z,100753.75
2022-10-28T00:55:26.333Z,100761.56
2022-10-28T00:56:35.926Z,100759.25
2022-10-28T00:57:39.082Z,100753.03
2022-10-28T00:58:49.855Z,100749.28
2022-10-28T00:59:54.770Z,100751.41
2022-10-28T01:00:58.969Z,100752.16
2022-10-28T01:02:05.779Z,100750.16
2022-10-28T01:03:10.202Z,100748.16
2022-10-28T01:04:13.876Z,100751.28
2022-10-28T01:05:27.140Z,100758.38
2022-10-28T01:06:29.999Z,100756.38
2022-10-28T01:07:32.380Z,100757.31
2022-10-28T01:08:37.646Z,100748.94
2022-10-28T01:09:41.731Z,100757.78
2022-10-28T01:11:17.983Z,100756.25
2022-10-28T01:13:00.780Z,100752.22
2022-10-28T01:14:12.611Z,100745.59
2022-10-28T01:15:31.015Z,100742.84
2022-10-28T01:16:52.193Z,100748.81
2022-10-28T01:18:13.088Z,100746.00
2022-10-28T01:19:44.669Z,100748.06
2022-10-28T01:21:28.684Z,100734.31
2022-10-28T01:22:43.894Z,100738.97
2022-10-28T01:24:25.088Z,100738.25
2022-10-28T01:26:02.437Z,100743.31
2022-10-28T01:27:34.571Z,100745.19
2022-10-28T01:28:55.010Z,100753.91
2022-10-28T01:30:26.896Z,100749.75
2022-10-28T01:31:50.313Z,100755.09
2022-10-28T01:33:07.595Z,100764.41
2022-10-28T01:34:31.913Z,100757.63
2022-10-28T01:35:41.594Z,100764.19
2022-10-28T01:37:17.124Z,100759.72
2022-10-28T01:38:20.887Z,100761.56
2022-10-28T01:39:55.067Z,100754.44
2022-10-28T01:41:16.467Z,100754.72
2022-10-28T01:42:27.632Z,100760.66
2022-10-28T01:43:42.883Z,100753.75
2022-10-28T01:44:49.798Z,100754.03
2022-10-28T01:46:04.985Z,100749.66
2022-10-28T01:47:16.227Z,100746.78
2022-10-28T01:50:01.121Z,100751.97
2022-10-28T01:51:11.886Z,100739.81
2022-10-28T01:52:18.724Z,100740.09
2022-10-28T01:53:27.265Z,100745.31
2022-10-28T01:54:33.812Z,100741.22
2022-10-28T01:55:42.982Z,100748.41
2022-10-28T01:56:47.355Z,100749.88
2022-10-28T01:57:51.876Z,100745.31
2022-10-28T01:58:56.975Z,100746.94
2022-10-28T02:00:01.057Z,100743.31
2022-10-28T02:01:07.940Z,100740.69
2022-10-28T02:02:13.087Z,100746.81
2022-10-28T02:03:17.303Z,100739.69
2022-10-28T02:04:20.713Z,100742.88
2022-10-28T02:05:41.023Z,100739.13
2022-10-28T02:06:49.555Z,100742.34
2022-10-28T02:07:59.467Z,100731.50
2022-10-28T02:09:53.211Z,100737.66
2022-10-28T02:11:18.095Z,100736.03
2022-10-28T02:12:25.755Z,100742.22
2022-10-28T02:13:44.984Z,100735.41
2022-10-28T02:14:59.392Z,100740.72
2022-10-28T02:16:35.303Z,100740.38
2022-10-28T02:18:14.996Z,100753.25
2022-10-28T02:19:33.947Z,100748.06
2022-10-28T02:21:01.198Z,100750.56
2022-10-28T02:22:33.821Z,100746.66
2022-10-28T02:23:44.402Z,100756.56
2022-10-28T02:25:24.549Z,100757.69
2022-10-28T02:26:41.147Z,100755.72
2022-10-28T02:27:48.541Z,100762.91
2022-10-28T02:29:13.749Z,100750.66
2022-10-28T02:30:21.866Z,100756.56
2022-10-28T02:31:44.011Z,100757.53
2022-10-28T02:32:52.898Z,100757.84
2022-10-28T02:34:03.040Z,100752.63
2022-10-28T02:35:12.308Z,100759.53
2022-10-28T02:36:17.596Z,100750.34
2022-10-28T02:37:35.292Z,100757.31
2022-10-28T02:38:46.660Z,100752.28
2022-10-28T02:39:54.001Z,100745.44
2022-10-28T02:41:02.518Z,100750.47
2022-10-28T02:42:08.972Z,100745.44
2022-10-28T02:43:14.848Z,100750.72
2022-10-28T02:44:30.682Z,100742.88
2022-10-28T02:45:42.719Z,100738.56
2022-10-28T02:46:49.966Z,100738.75
2022-10-28T02:47:58.857Z,100748.81
2022-10-28T02:49:07.141Z,100741.75
2022-10-28T02:50:13.475Z,100743.16
2022-10-28T02:52:00.452Z,100743.84
2022-10-28T02:53:19.423Z,100744.66
2022-10-28T02:54:26.456Z,100746.28
2022-10-28T02:55:35.678Z,100738.88
2022-10-28T02:56:42.489Z,100740.47
2022-10-28T02:57:49.859Z,100736.47
2022-10-28T02:58:52.642Z,100735.34
2022-10-28T02:59:58.458Z,100739.00
2022-10-28T03:01:00.495Z,100742.38
2022-10-28T03:02:03.468Z,100741.75
2022-10-28T03:03:05.883Z,100730.75
2022-10-28T03:04:08.566Z,100742.88
2022-10-28T03:05:13.198Z,100744.63
2022-10-28T03:06:16.997Z,100738.91
2022-10-28T03:07:19.807Z,100741.22
2022-10-28T03:08:21.939Z,100740.44
2022-10-28T03:09:24.217Z,100741.78
2022-10-28T03:10:26.359Z,100746.41
2022-10-28T03:11:28.610Z,100746.53
2022-10-28T03:12:32.992Z,100758.03
2022-10-28T03:13:37.297Z,100754.84
2022-10-28T03:14:43.628Z,100749.72
2022-10-28T03:15:47.923Z,100746.13
2022-10-28T03:16:50.080Z,100747.13
2022-10-28T03:17:52.429Z,100750.47
2022-10-28T03:18:56.148Z,100746.31
2022-10-28T03:20:00.284Z,100748.66
2022-10-28T03:21:02.541Z,100743.31
2022-10-28T03:22:04.892Z,100752.81
2022-10-28T03:23:07.717Z,100752.34
2022-10-28T03:24:10.758Z,100747.19
2022-10-28T03:25:12.789Z,100746.59
2022-10-28T03:26:15.067Z,100751.13
2022-10-28T03:27:19.411Z,100744.28
2022-10-28T03:28:21.519Z,100754.34
2022-10-28T03:29:25.385Z,100744.09
2022-10-28T03:30:27.493Z,100747.03
2022-10-28T03:31:29.576Z,100753.69
2022-10-28T03:32:32.112Z,100748.00
2022-10-28T03:33:36.327Z,100747.16
2022-10-28T03:34:38.305Z,100741.78
2022-10-28T03:35:40.371Z,100742.22
2022-10-28T03:36:43.476Z,100737.09
2022-10-28T03:37:45.748Z,100739.09
2022-10-28T03:38:48.677Z,100740.41
2022-10-28T03:39:50.688Z,100739.97
2022-10-28T03:40:55.699Z,100733.78
2022-10-28T03:42:01.158Z,100741.34
2022-10-28T03:43:03.252Z,100743.19
2022-10-28T03:44:06.695Z,100746.28
2022-10-28T03:45:10.273Z,100741.94
2022-10-28T03:46:12.930Z,100746.81
2022-10-28T03:47:15.035Z,100745.03
2022-10-28T03:48:17.680Z,100738.84
2022-10-28T03:49:19.764Z,100738.38
2022-10-28T03:50:22.042Z,100741.41
2022-10-28T03:51:24.242Z,100738.59
2022-10-28T03:52:26.755Z,100731.75
2022-10-28T03:53:31.179Z,100729.44
2022-10-28T03:54:34.713Z,100728.53
2022-10-28T03:55:36.850Z,100729.44
2022-10-28T03:56:41.008Z,100726.03
2022-10-28T03:57:43.214Z,100720.31
2022-10-28T03:58:48.975Z,100718.94
2022-10-28T03:59:52.093Z,100719.97
2022-10-28T04:00:56.439Z,100725.47
2022-10-28T04:01:59.302Z,100715.09
2022-10-28T04:03:01.562Z,100720.56
2022-10-28T04:04:04.045Z,100717.47
2022-10-28T04:05:06.757Z,100722.53
2022-10-28T04:06:12.982Z,100716.34
2022-10-28T04:07:15.111Z,100730.19
2022-10-28T04:08:18.605Z,100734.03
2022-10-28T04:09:22.664Z,100731.06
2022-10-28T04:10:28.981Z,100733.59
2022-10-28T04:11:31.248Z,100728.31
2022-10-28T04:12:33.612Z,100728.78
2022-10-28T04:13:37.734Z,100729.44
2022-10-28T04:14:39.889Z,100721.25
2022-10-28T04:15:45.479Z,100727.69
2022-10-28T04:16:47.825Z,100730.06
2022-10-28T04:17:50.240Z,100729.72
2022-10-28T04:18:53.291Z,100729.94
2022-10-28T04:19:56.756Z,100727.84
2022-10-28T04:20:59.063Z,100726.41
2022-10-28T04:22:01.254Z,100731.25
2022-10-28T04:23:03.936Z,100724.81
2022-10-28T04:24:06.763Z,100726.78
2022-10-28T04:25:09.019Z,100722.66
2022-10-28T04:26:11.140Z,100726.88
2022-10-28T04:27:13.198Z,100714.31
2022-10-28T04:28:17.330Z,100719.25
2022-10-28T04:29:19.946Z,100720.06
2022-10-28T04:30:22.459Z,100712.31
2022-10-28T04:31:24.526Z,100720.75
2022-10-28T04:32:26.745Z,100723.22
2022-10-28T04:33:29.458Z,100716.16
2022-10-28T04:34:31.543Z,100723.09
2022-10-28T04:35:33.667Z,100728.44
2022-10-28T04:36:35.810Z,100725.91
2022-10-28T04:37:38.233Z,100730.72
2022-10-28T04:38:40.368Z,100733.50
2022-10-28T04:39:42.964Z,100719.81
2022-10-28T04:40:52.164Z,100717.28
2022-10-28T04:41:54.490Z,100726.13
2022-10-28T04:42:56.832Z,100718.91
2022-10-28T04:44:00.089Z,100715.72
2022-10-28T04:45:02.943Z,100712.84
2022-10-28T04:46:06.251Z,100710.13
2022-10-28T04:47:08.837Z,100705.06
2022-10-28T04:48:11.071Z,100724.09
2022-10-28T04:49:15.194Z,100717.09
2022-10-28T04:50:42.751Z,100711.59
2022-10-28T04:51:49.626Z,100715.97
2022-10-28T04:52:52.498Z,100708.53
2022-10-28T04:53:56.589Z,100711.63
2022-10-28T04:55:00.194Z,100717.19
2022-10-28T04:56:03.961Z,100721.16
2022-10-28T04:57:08.326Z,100718.91
2022-10-28T04:58:11.127Z,100719.03
2022-10-28T04:59:18.261Z,100712.31
2022-10-28T05:00:21.932Z,100720.06
2022-10-28T05:01:24.428Z,100703.59
2022-10-28T05:02:27.935Z,100714.34
2022-10-28T05:03:30.592Z,100718.31
2022-10-28T05:04:33.072Z,100709.59
2022-10-28T05:05:35.612Z,100715.75
2022-10-28T05:06:38.437Z,100713.59
2022-10-28T05:07:41.905Z,100711.44
2022-10-28T05:08:44.079Z,100714.81
2022-10-28T05:09:46.352Z,100720.22
2022-10-28T05:10:51.568Z,100718.16
2022-10-28T05:11:56.337Z,100720.66
2022-10-28T05:13:05.024Z,100728.53
2022-10-28T05:14:12.071Z,100728.56
2022-10-28T05:15:19.157Z,100730.41
2022-10-28T05:16:25.352Z,100727.81
2022-10-28T05:17:38.809Z,100727.84
2022-10-28T05:18:47.404Z,100718.84
2022-10-28T05:19:55.215Z,100724.69
2022-10-28T05:21:13.246Z,100723.66
2022-10-28T05:22:20.267Z,100720.69
2022-10-28T05:23:28.514Z,100724.72
2022-10-28T05:24:34.659Z,100725.50
2022-10-28T05:25:38.466Z,100720.81
2022-10-28T05:26:43.620Z,100719.00
2022-10-28T05:27:52.311Z,100715.81
2022-10-28T05:28:58.367Z,100714.78
2022-10-28T05:30:11.380Z,100711.00
2022-10-28T05:31:26.843Z,100712.63
2022-10-28T05:32:29.954Z,100716.03
2022-10-28T05:33:35.048Z,100714.66
2022-10-28T05:34:37.078Z,100720.41
2022-10-28T05:35:42.581Z,100719.84
2022-10-28T05:36:47.469Z,100717.47
2022-10-28T05:37:51.549Z,100717.56
2022-10-28T05:39:03.900Z,100709.66
2022-10-28T05:40:09.974Z,100717.34
2022-10-28T05:41:18.723Z,100717.22
2022-10-28T05:42:21.948Z,100717.47
2022-10-28T05:43:28.025Z,100721.00
2022-10-28T05:44:44.853Z,100723.63
2022-10-28T05:45:58.642Z,100717.91
2022-10-28T05:47:22.871Z,100715.38
2022-10-28T05:50:26.626Z,100720.41
2022-10-28T05:51:33.118Z,100722.59
2022-10-28T05:54:36.597Z,100734.19
2022-10-28T05:55:45.135Z,100729.03
2022-10-28T05:57:15.180Z,100728.00
2022-10-28T05:58:20.049Z,100733.63
2022-10-28T05:59:45.888Z,100735.47
2022-10-28T06:00:50.397Z,100728.88
2022-10-28T06:01:54.653Z,100735.34
2022-10-28T06:03:10.424Z,100727.84
2022-10-28T06:04:14.852Z,100730.00
2022-10-28T06:05:19.420Z,100729.00
2022-10-28T06:06:23.643Z,100726.94
2022-10-28T06:07:29.834Z,100726.38
2022-10-28T06:08:36.432Z,100727.97
2022-10-28T06:09:39.979Z,100722.59
2022-10-28T06:10:54.457Z,100728.66
2022-10-28T06:12:21.039Z,100724.75
2022-10-28T06:13:25.291Z,100721.09
2022-10-28T06:14:28.154Z,100725.84
2022-10-28T06:15:31.417Z,100721.13
2022-10-28T06:16:36.311Z,100722.72
2022-10-28T06:17:38.641Z,100723.09
2022-10-28T06:18:43.041Z,100718.38
2022-10-28T06:19:46.314Z,100713.78
2022-10-28T06:20:58.800Z,100706.66
2022-10-28T06:22:01.078Z,100710.59
2022-10-28T06:23:07.019Z,100710.47
2022-10-28T06:24:36.357Z,100709.66
2022-10-28T06:25:42.577Z,100701.38
2022-10-28T06:26:53.699Z,100712.06
2022-10-28T06:28:40.939Z,100703.22
2022-10-28T06:30:04.663Z,100715.03
2022-10-28T06:31:11.698Z,100707.84
2022-10-28T06:32:20.596Z,100715.63
2022-10-28T06:33:51.464Z,100712.41
2022-10-28T06:37:09.499Z,100715.16
2022-10-28T06:38:17.389Z,100713.53
2022-10-28T06:39:57.437Z,100711.84
2022-10-28T06:41:41.997Z,100712.72
2022-10-28T06:56:19.749Z,100712.38
2022-10-28T07:00:26.468Z,100719.06
2022-10-28T07:09:01.191Z,100702.25
2022-10-28T07:10:14.104Z,100706.63
2022-10-28T07:11:32.580Z,100701.66
2022-10-28T07:12:37.323Z,100701.75
2022-10-28T07:13:48.863Z,100698.44
2022-10-28T07:21:57.609Z,100706.75
2022-10-28T07:23:06.252Z,100706.53
2022-10-28T07:24:08.990Z,100712.78
2022-10-28T07:25:12.167Z,100696.69
2022-10-28T07:26:44.592Z,100703.13
2022-10-28T07:27:47.244Z,100699.69
2022-10-28T07:28:57.177Z,100693.69
2022-10-28T07:30:06.994Z,100692.25
2022-10-28T07:31:15.026Z,100695.31
2022-10-28T07:32:19.609Z,100688.63
2022-10-28T07:33:23.962Z,100692.50
2022-10-28T07:34:28.562Z,100686.16
2022-10-28T07:39:02.290Z,100684.25
2022-10-28T07:40:05.984Z,100691.81
2022-10-28T07:41:12.522Z,100683.75
2022-10-28T07:42:18.529Z,100687.66
2022-10-28T07:43:24.387Z,100687.78
2022-10-28T07:44:32.011Z,100694.53
2022-10-28T07:45:44.198Z,100691.31
2022-10-28T07:46:46.415Z,100690.69
2022-10-28T07:47:50.535Z,100688.41
2022-10-28T07:48:53.028Z,100689.47
2022-10-28T07:49:59.354Z,100686.88
2022-10-28T07:51:05.092Z,100692.59
2022-10-28T07:52:07.086Z,100684.53
2022-10-28T07:53:09.541Z,100686.50
2022-10-28T07:54:11.785Z,100690.59
2022-10-28T07:55:20.807Z,100693.88
2022-10-28T07:56:26.074Z,100691.41
2022-10-28T07:57:29.390Z,100686.84
2022-10-28T07:58:32.194Z,100696.81
2022-10-28T07:59:34.606Z,100697.22
2022-10-28T08:00:39.546Z,100692.41
2022-10-28T08:01:43.278Z,100693.53
2022-10-28T08:02:45.802Z,100698.13
2022-10-28T08:03:48.195Z,100685.88
2022-10-28T08:04:50.970Z,100692.69
2022-10-28T08:06:04.037Z,100686.31
2022-10-28T08:07:07.481Z,100689.78
2022-10-28T08:08:11.959Z,100692.19
2022-10-28T08:09:14.758Z,100689.47
2022-10-28T08:10:16.868Z,100689.28
2022-10-28T08:11:24.045Z,100687.50
2022-10-28T08:12:29.052Z,100675.84
2022-10-28T08:13:37.928Z,100681.63
2022-10-28T08:14:41.687Z,100680.03
2022-10-28T08:15:44.852Z,100684.38
2022-10-28T08:16:51.534Z,100679.22
2022-10-28T08:17:57.438Z,100685.47
2022-10-28T08:20:20.245Z,100676.00
2022-10-28T08:21:23.498Z,100674.34
2022-10-28T08:25:25.476Z,100674.34
2022-10-28T08:29:32.258Z,100675.66
2022-10-28T08:30:50.320Z,100666.03
2022-10-28T08:33:20.494Z,100681.78
2022-10-28T08:34:30.101Z,100676.28
2022-10-28T08:35:36.434Z,100673.09
2022-10-28T08:36:39.979Z,100685.44
2022-10-28T08:37:46.282Z,100678.31
2022-10-28T08:38:52.169Z,100675.69
2022-10-28T08:40:02.724Z,100676.81
2022-10-28T08:41:19.760Z,100678.75
2022-10-28T08:42:36.825Z,100674.63
2022-10-28T08:43:57.638Z,100678.25
2022-10-28T08:45:15.761Z,100680.06
2022-10-28T08:46:43.002Z,100677.03
2022-10-28T08:49:04.325Z,100675.19
2022-10-28T08:50:14.147Z,100669.66
2022-10-28T08:51:36.174Z,100678.84
2022-10-28T08:52:44.233Z,100675.28
2022-10-28T09:02:16.399Z,100661.75
2022-10-28T09:03:29.664Z,100668.81
2022-10-28T09:05:10.280Z,100660.84
2022-10-28T09:14:05.040Z,100644.63
2022-10-28T09:17:13.550Z,100648.97
2022-10-28T09:19:02.319Z,100638.56
2022-10-28T09:21:00.136Z,100641.88
2022-10-28T09:25:11.117Z,100623.44
2022-10-28T09:26:51.731Z,100629.00
2022-10-28T09:28:51.104Z,100625.94
2022-10-28T09:39:02.174Z,100624.03
2022-10-28T09:50:13.713Z,100607.13
2022-10-28T09:56:26.092Z,100595.16
2022-10-28T09:57:37.912Z,100593.78
2022-10-28T09:59:22.971Z,100592.06
2022-10-28T10:03:21.971Z,100593.69
2022-10-28T10:04:38.265Z,100599.22
2022-10-28T10:05:52.340Z,100585.78
2022-10-28T10:07:36.728Z,100588.25
2022-10-28T10:13:11.319Z,100596.41
2022-10-28T10:17:07.710Z,100589.00
2022-10-28T10:18:34.532Z,100583.25
2022-10-28T10:20:27.843Z,100589.38
2022-10-28T10:22:20.845Z,100586.13
2022-10-28T10:24:11.806Z,100575.41
2022-10-28T10:25:49.192Z,100577.28
2022-10-28T10:29:02.898Z,100583.94
2022-10-28T10:30:23.991Z,100584.00
2022-10-28T10:32:09.646Z,100576.47
2022-10-28T10:33:45.329Z,100586.44
2022-10-28T10:35:29.070Z,100580.59
2022-10-28T10:38:12.892Z,100581.13
2022-10-28T10:39:26.824Z,100585.69
2022-10-28T10:40:52.325Z,100580.81
2022-10-28T10:43:18.399Z,100577.72
2022-10-28T10:44:21.388Z,100581.50
2022-10-28T10:45:27.932Z,100578.03
2022-10-28T10:46:30.199Z,100577.56
2022-10-28T10:47:37.889Z,100578.03
2022-10-28T10:50:33.814Z,100571.78
2022-10-28T10:51:53.162Z,100562.69
2022-10-28T10:53:01.940Z,100565.88
2022-10-28T10:54:05.224Z,100560.88
2022-10-28T10:55:24.285Z,100561.09
2022-10-28T10:56:33.145Z,100558.66
2022-10-28T10:57:35.558Z,100563.81
2022-10-28T10:58:42.149Z,100556.28
2022-10-28T10:59:52.872Z,100564.19
2022-10-28T11:01:04.851Z,100563.72
2022-10-28T11:02:29.625Z,100566.41
2022-10-28T11:03:47.191Z,100572.81
2022-10-28T11:06:33.397Z,100572.94
2022-10-28T11:07:45.724Z,100571.13
2022-10-28T11:08:48.383Z,100564.72
2022-10-28T11:10:43.959Z,100559.09
2022-10-28T11:11:50.608Z,100556.25
2022-10-28T11:12:56.475Z,100566.13
2022-10-28T11:14:15.333Z,100559.25
2022-10-28T11:15:29.407Z,100565.06
2022-10-28T11:16:32.680Z,100570.06
2022-10-28T11:17:36.359Z,100554.56
2022-10-28T11:18:44.710Z,100563.31
2022-10-28T11:20:02.535Z,100557.13
2022-10-28T11:21:38.438Z,100561.06
2022-10-28T11:23:04.796Z,100555.06
2022-10-28T11:24:27.619Z,100556.75
2022-10-28T11:25:44.133Z,100560.59
2022-10-28T11:27:24.567Z,100550.50
2022-10-28T11:28:45.901Z,100555.34
2022-10-28T11:30:39.263Z,100545.88
2022-10-28T11:32:10.736Z,100556.78
2022-10-28T11:33:35.219Z,100549.59
2022-10-28T11:35:10.293Z,100547.63
2022-10-28T11:36:32.312Z,100548.97
2022-10-28T11:38:01.834Z,100545.75
2022-10-28T11:39:23.527Z,100539.75
2022-10-28T11:40:42.301Z,100546.72
2022-10-28T11:41:55.492Z,100539.75
2022-10-28T11:43:26.566Z,100538.59
2022-10-28T11:44:49.543Z,100537.44
2022-10-28T11:46:20.516Z,100533.50
2022-10-28T11:47:45.733Z,100534.03
2022-10-28T11:48:57.142Z,100539.03
2022-10-28T11:50:25.649Z,100528.69
2022-10-28T11:52:12.486Z,100530.81
2022-10-28T11:53:34.616Z,100528.94
2022-10-28T11:54:56.185Z,100535.75
2022-10-28T11:56:23.566Z,100538.44
2022-10-28T11:57:50.186Z,100534.53
2022-10-28T12:01:06.293Z,100531.41
2022-10-28T12:04:37.134Z,100525.06
2022-10-28T12:07:33.911Z,100525.66
2022-10-28T12:08:57.254Z,100525.94
2022-10-28T12:10:35.490Z,100521.06
2022-10-28T12:12:00.325Z,100515.84
2022-10-28T12:13:10.193Z,100521.28
2022-10-28T12:14:47.108Z,100510.25
2022-10-28T12:16:21.148Z,100511.03
2022-10-28T12:17:30.880Z,100516.63
2022-10-28T12:18:47.760Z,100513.69
2022-10-28T12:20:04.112Z,100510.94
2022-10-28T12:21:46.547Z,100517.13
2022-10-28T12:22:54.800Z,100516.38
2022-10-28T12:23:59.193Z,100509.44
2022-10-28T12:25:18.215Z,100520.09
2022-10-28T12:26:46.023Z,100507.88
2022-10-28T12:27:52.199Z,100511.81
2022-10-28T12:29:01.543Z,100501.91
2022-10-28T12:31:44.570Z,100501.94
2022-10-28T12:32:50.931Z,100505.09
2022-10-28T12:33:58.953Z,100502.13
2022-10-28T12:35:08.532Z,100497.22
2022-10-28T12:36:22.278Z,100499.13
2022-10-28T12:37:33.326Z,100503.91
2022-10-28T12:39:03.291Z,100500.78
2022-10-28T12:40:22.426Z,100501.84
2022-10-28T12:41:47.490Z,100502.28
2022-10-28T12:43:08.529Z,100500.78
2022-10-28T12:44:16.964Z,100505.72
2022-10-28T12:45:23.822Z,100499.06
2022-10-28T12:48:17.126Z,100500.91
2022-10-28T12:49:35.216Z,100510.78
2022-10-28T12:50:53.429Z,100505.28
2022-10-28T12:52:01.206Z,100503.28
2022-10-28T12:53:35.628Z,100506.53
2022-10-28T12:54:52.602Z,100505.28
2022-10-28T12:56:11.475Z,100499.03
2022-10-28T12:57:20.509Z,100501.47
2022-10-28T12:58:31.380Z,100496.34
2022-10-28T12:59:39.177Z,100495.13
2022-10-28T13:00:45.588Z,100501.91
2022-10-28T13:01:51.785Z,100504.56
2022-10-28T13:03:05.010Z,100497.41
2022-10-28T13:04:12.259Z,100501.47
2022-10-28T13:06:01.848Z,100502.22
2022-10-28T13:07:29.598Z,100491.59
2022-10-28T13:09:14.537Z,100490.28
2022-10-28T13:10:28.950Z,100488.69
2022-10-28T13:12:11.396Z,100491.84
2022-10-28T13:13:25.944Z,100487.78
2022-10-28T13:15:05.822Z,100495.31
2022-10-28T13:16:14.982Z,100491.72
2022-10-28T13:17:58.079Z,100495.63
2022-10-28T13:19:24.945Z,100492.50
2022-10-28T13:20:30.592Z,100490.41
2022-10-28T13:22:15.769Z,100490.94
2022-10-28T13:23:55.801Z,100492.66
2022-10-28T13:25:16.678Z,100487.13
2022-10-28T13:28:03.045Z,100487.63
2022-10-28T13:29:07.858Z,100487.34
2022-10-28T13:30:22.521Z,100485.28
2022-10-28T13:31:46.875Z,100492.44
2022-10-28T13:33:16.877Z,100484.84
2022-10-28T13:34:30.710Z,100483.75
2022-10-28T13:35:33.620Z,100482.97
2022-10-28T13:36:41.160Z,100480.59
2022-10-28T13:37:48.010Z,100477.78
2022-10-28T13:38:56.298Z,100487.75
2022-10-28T13:39:58.974Z,100482.09
2022-10-28T13:41:02.483Z,100486.09
2022-10-28T13:42:14.063Z,100482.47
2022-10-28T13:43:22.618Z,100481.13
2022-10-28T13:44:31.755Z,100475.81
2022-10-28T13:46:10.847Z,100482.84
2022-10-28T13:47:20.437Z,100481.47
2022-10-28T13:48:43.625Z,100477.84
2022-10-28T13:50:08.261Z,100479.44
2022-10-28T13:51:14.483Z,100484.91
2022-10-28T13:52:24.972Z,100489.44
2022-10-28T13:53:42.133Z,100482.56
2022-10-28T13:54:44.943Z,100485.50
2022-10-28T13:55:47.143Z,100480.72
2022-10-28T13:56:50.531Z,100479.22
2022-10-28T13:58:03.143Z,100490.00
2022-10-28T13:59:14.603Z,100485.69
2022-10-28T14:00:18.994Z,100495.09
2022-10-28T14:08:23.255Z,100478.81
2022-10-28T14:11:37.907Z,100480.63
2022-10-28T14:12:47.125Z,100476.66
2022-10-28T14:13:50.616Z,100476.81
2022-10-28T14:15:07.722Z,100476.97
2022-10-28T14:16:22.350Z,100467.53
2022-10-28T14:17:47.568Z,100466.03
2022-10-28T14:19:12.453Z,100461.78
2022-10-28T14:20:37.014Z,100468.56
2022-10-28T14:23:36.754Z,100460.44
2022-10-28T14:24:54.674Z,100463.84
2022-10-28T14:26:08.696Z,100466.56
2022-10-28T14:27:17.338Z,100467.84
2022-10-28T14:28:34.493Z,100467.56
2022-10-28T14:32:37.674Z,100467.78
2022-10-28T14:33:43.037Z,100462.72
2022-10-28T14:34:46.759Z,100469.72
2022-10-28T14:35:58.197Z,100470.50
2022-10-28T14:37:03.765Z,100464.97
2022-10-28T14:38:14.951Z,100470.50
2022-10-28T14:39:59.984Z,100464.91
2022-10-28T14:41:03.492Z,100472.81
2022-10-28T14:42:30.647Z,100465.06
2022-10-28T14:44:10.396Z,100456.44
2022-10-28T14:45:18.981Z,100462.81
2022-10-28T14:47:05.255Z,100455.72
2022-10-28T14:48:32.324Z,100463.59
2022-10-28T14:50:08.079Z,100454.97
2022-10-28T14:54:07.902Z,100456.44
2022-10-28T14:55:32.028Z,100463.53
2022-10-28T14:56:40.428Z,100458.72
2022-10-28T14:57:53.636Z,100457.09
2022-10-28T14:59:05.282Z,100460.28
2022-10-28T15:00:18.536Z,100457.44
2022-10-28T15:01:30.701Z,100454.41
2022-10-28T15:02:38.736Z,100460.84
2022-10-28T15:03:44.047Z,100461.63
2022-10-28T15:06:48.567Z,100463.34
2022-10-28T15:07:52.539Z,100461.56
2022-10-28T15:08:56.158Z,100458.00
2022-10-28T15:09:59.092Z,100456.34
2022-10-28T15:11:02.348Z,100460.06
2022-10-28T15:12:13.847Z,100443.06
2022-10-28T15:13:27.036Z,100455.72
2022-10-28T15:14:56.084Z,100451.50
2022-10-28T15:16:11.909Z,100449.25
2022-10-28T15:17:21.590Z,100444.22
2022-10-28T15:19:44.374Z,100456.41
2022-10-28T15:22:33.881Z,100447.53
2022-10-28T15:23:49.894Z,100454.94
2022-10-28T15:25:06.996Z,100455.31
2022-10-28T15:26:18.678Z,100449.28
2022-10-28T15:27:22.410Z,100451.78
2022-10-28T15:28:25.867Z,100450.28
2022-10-28T15:29:29.318Z,100446.03
2022-10-28T15:30:32.727Z,100447.81
2022-10-28T15:31:39.307Z,100449.59
2022-10-28T15:32:42.005Z,100448.38
2022-10-28T15:33:45.378Z,100453.69
2022-10-28T15:34:56.726Z,100451.69
2022-10-28T15:36:22.106Z,100445.38
2022-10-28T15:37:33.345Z,100456.44
2022-10-28T15:38:44.326Z,100458.66
2022-10-28T15:39:53.831Z,100451.44
2022-10-28T15:40:57.210Z,100451.34
2022-10-28T15:42:01.254Z,100457.59
2022-10-28T15:43:08.963Z,100450.56
2022-10-28T15:44:40.515Z,100451.56
2022-10-28T15:45:42.927Z,100447.72
2022-10-28T15:46:49.611Z,100440.22
2022-10-28T15:47:52.995Z,100445.75
2022-10-28T15:48:58.610Z,100439.00
2022-10-28T15:50:25.940Z,100438.25
2022-10-28T15:51:28.353Z,100444.16
2022-10-28T15:52:45.172Z,100440.56
2022-10-28T15:53:49.032Z,100438.16
2022-10-28T15:54:59.787Z,100438.78
2022-10-28T15:56:28.259Z,100435.47
2022-10-28T15:57:46.744Z,100435.19
2022-10-28T15:59:07.316Z,100434.69
2022-10-28T16:00:22.507Z,100430.00
2022-10-28T16:01:40.096Z,100436.03
2022-10-28T16:02:43.485Z,100434.09
2022-10-28T16:03:47.761Z,100426.25
2022-10-28T16:04:50.391Z,100428.63
2022-10-28T16:05:56.000Z,100423.16
2022-10-28T16:06:58.995Z,100417.22